sensor_id;sensor_type;location;lat;lon;timestamp;P1;durP1;ratioP1;P2;durP2;ratioP2
20865;SDS011;10593;48.398;10.698;2023-05-29T00:00:35;5.27;;;4.17;;
20865;SDS011;10593;48.398;10.698;2023-05-29T00:03:01;5.40;;;4.67;;
20865;SDS011;10593;48.398;10.698;2023-05-29T00:05:27;5.37;;;4.27;;
20865;SDS011;10593;48.398;10.698;2023-05-29T00:07:52;5.67;;;5.07;;
20865;SDS011;10593;48.398;10.698;2023-05-29T00:10:18;4.67;;;4.23;;
20865;SDS011;10593;48.398;10.698;2023-05-29T00:12:43;5.07;;;4.57;;
20865;SDS011;10593;48.398;10.698;2023-05-29T00:15:09;5.90;;;4.67;;
20865;SDS011;10593;48.398;10.698;2023-05-29T00:17:35;5.43;;;4.53;;
20865;SDS011;10593;48.398;10.698;2023-05-29T00:20:02;4.87;;;4.27;;
20865;SDS011;10593;48.398;10.698;2023-05-29T00:22:32;4.97;;;4.30;;
20865;SDS011;10593;48.398;10.698;2023-05-29T00:24:57;4.70;;;4.13;;
20865;SDS011;10593;48.398;10.698;2023-05-29T00:27:23;4.70;;;4.20;;
20865;SDS011;10593;48.398;10.698;2023-05-29T00:29:49;4.37;;;3.97;;
20865;SDS011;10593;48.398;10.698;2023-05-29T00:32:15;4.90;;;4.50;;
20865;SDS011;10593;48.398;10.698;2023-05-29T00:34:40;5.10;;;4.20;;
20865;SDS011;10593;48.398;10.698;2023-05-29T00:37:06;4.40;;;4.00;;
20865;SDS011;10593;48.398;10.698;2023-05-29T00:39:32;5.57;;;4.83;;
20865;SDS011;10593;48.398;10.698;2023-05-29T00:41:57;5.00;;;4.40;;
20865;SDS011;10593;48.398;10.698;2023-05-29T00:44:23;5.43;;;4.03;;
20865;SDS011;10593;48.398;10.698;2023-05-29T00:46:49;5.33;;;4.40;;
20865;SDS011;10593;48.398;10.698;2023-05-29T00:49:18;4.93;;;4.50;;
20865;SDS011;10593;48.398;10.698;2023-05-29T00:51:46;5.57;;;4.23;;
20865;SDS011;10593;48.398;10.698;2023-05-29T00:54:17;4.60;;;4.20;;
20865;SDS011;10593;48.398;10.698;2023-05-29T00:56:48;4.67;;;4.27;;
20865;SDS011;10593;48.398;10.698;2023-05-29T00:59:14;4.90;;;4.40;;
20865;SDS011;10593;48.398;10.698;2023-05-29T01:01:40;5.80;;;4.23;;
20865;SDS011;10593;48.398;10.698;2023-05-29T01:04:07;4.50;;;4.10;;
20865;SDS011;10593;48.398;10.698;2023-05-29T01:06:37;4.80;;;3.83;;
20865;SDS011;10593;48.398;10.698;2023-05-29T01:09:04;4.20;;;3.80;;
20865;SDS011;10593;48.398;10.698;2023-05-29T01:14:06;4.03;;;3.70;;
20865;SDS011;10593;48.398;10.698;2023-05-29T01:16:47;5.07;;;4.57;;
20865;SDS011;10593;48.398;10.698;2023-05-29T01:25:42;5.73;;;4.80;;
20865;SDS011;10593;48.398;10.698;2023-05-29T01:28:20;4.70;;;4.30;;
20865;SDS011;10593;48.398;10.698;2023-05-29T01:30:49;5.00;;;4.17;;
20865;SDS011;10593;48.398;10.698;2023-05-29T01:33:16;5.63;;;5.00;;
20865;SDS011;10593;48.398;10.698;2023-05-29T01:35:42;4.63;;;4.13;;
20865;SDS011;10593;48.398;10.698;2023-05-29T01:38:08;5.63;;;4.53;;
20865;SDS011;10593;48.398;10.698;2023-05-29T01:40:33;4.80;;;4.40;;
20865;SDS011;10593;48.398;10.698;2023-05-29T01:43:00;4.90;;;4.33;;
20865;SDS011;10593;48.398;10.698;2023-05-29T01:45:27;5.20;;;4.70;;
20865;SDS011;10593;48.398;10.698;2023-05-29T01:47:54;4.73;;;4.20;;
20865;SDS011;10593;48.398;10.698;2023-05-29T01:50:20;6.63;;;4.40;;
20865;SDS011;10593;48.398;10.698;2023-05-29T01:52:49;5.43;;;4.67;;
20865;SDS011;10593;48.398;10.698;2023-05-29T01:55:15;5.67;;;4.60;;
20865;SDS011;10593;48.398;10.698;2023-05-29T01:57:40;5.20;;;4.70;;
20865;SDS011;10593;48.398;10.698;2023-05-29T02:00:07;4.07;;;3.77;;
20865;SDS011;10593;48.398;10.698;2023-05-29T02:02:37;5.87;;;5.00;;
20865;SDS011;10593;48.398;10.698;2023-05-29T02:05:04;5.00;;;4.50;;
20865;SDS011;10593;48.398;10.698;2023-05-29T02:07:32;4.87;;;4.37;;
20865;SDS011;10593;48.398;10.698;2023-05-29T02:09:57;5.73;;;4.87;;
20865;SDS011;10593;48.398;10.698;2023-05-29T02:12:23;5.00;;;4.53;;
20865;SDS011;10593;48.398;10.698;2023-05-29T02:14:48;5.57;;;4.80;;
20865;SDS011;10593;48.398;10.698;2023-05-29T02:17:14;5.07;;;4.40;;
20865;SDS011;10593;48.398;10.698;2023-05-29T02:19:40;5.53;;;4.93;;
20865;SDS011;10593;48.398;10.698;2023-05-29T02:22:06;6.37;;;4.27;;
20865;SDS011;10593;48.398;10.698;2023-05-29T02:24:32;5.00;;;4.60;;
20865;SDS011;10593;48.398;10.698;2023-05-29T02:26:58;4.43;;;3.73;;
20865;SDS011;10593;48.398;10.698;2023-05-29T02:29:24;6.33;;;4.37;;
20865;SDS011;10593;48.398;10.698;2023-05-29T02:31:50;4.77;;;4.37;;
20865;SDS011;10593;48.398;10.698;2023-05-29T02:34:15;5.00;;;4.50;;
20865;SDS011;10593;48.398;10.698;2023-05-29T02:36:41;4.83;;;4.43;;
20865;SDS011;10593;48.398;10.698;2023-05-29T02:39:07;5.83;;;4.10;;
20865;SDS011;10593;48.398;10.698;2023-05-29T02:41:32;5.00;;;4.50;;
20865;SDS011;10593;48.398;10.698;2023-05-29T02:43:58;4.80;;;4.40;;
20865;SDS011;10593;48.398;10.698;2023-05-29T02:46:23;4.83;;;4.33;;
20865;SDS011;10593;48.398;10.698;2023-05-29T02:48:49;4.70;;;4.20;;
20865;SDS011;10593;48.398;10.698;2023-05-29T02:51:15;4.57;;;4.17;;
20865;SDS011;10593;48.398;10.698;2023-05-29T02:53:40;5.37;;;4.80;;
20865;SDS011;10593;48.398;10.698;2023-05-29T02:56:07;6.27;;;4.90;;
20865;SDS011;10593;48.398;10.698;2023-05-29T02:58:34;4.80;;;4.37;;
20865;SDS011;10593;48.398;10.698;2023-05-29T03:01:00;4.97;;;4.47;;
20865;SDS011;10593;48.398;10.698;2023-05-29T03:03:28;4.93;;;4.37;;
20865;SDS011;10593;48.398;10.698;2023-05-29T03:05:55;4.50;;;4.10;;
20865;SDS011;10593;48.398;10.698;2023-05-29T03:08:20;4.50;;;3.90;;
20865;SDS011;10593;48.398;10.698;2023-05-29T03:10:46;5.30;;;4.80;;
20865;SDS011;10593;48.398;10.698;2023-05-29T03:13:12;5.33;;;4.10;;
20865;SDS011;10593;48.398;10.698;2023-05-29T03:15:38;5.87;;;4.30;;
20865;SDS011;10593;48.398;10.698;2023-05-29T03:18:04;4.73;;;4.23;;
20865;SDS011;10593;48.398;10.698;2023-05-29T03:20:29;5.00;;;4.53;;
20865;SDS011;10593;48.398;10.698;2023-05-29T03:22:55;6.70;;;5.10;;
20865;SDS011;10593;48.398;10.698;2023-05-29T03:25:21;6.00;;;4.30;;
20865;SDS011;10593;48.398;10.698;2023-05-29T03:27:47;4.50;;;4.10;;
20865;SDS011;10593;48.398;10.698;2023-05-29T03:30:13;4.93;;;4.30;;
20865;SDS011;10593;48.398;10.698;2023-05-29T03:32:39;4.80;;;4.30;;
20865;SDS011;10593;48.398;10.698;2023-05-29T03:35:05;4.63;;;4.23;;
20865;SDS011;10593;48.398;10.698;2023-05-29T03:37:31;5.00;;;4.60;;
20865;SDS011;10593;48.398;10.698;2023-05-29T03:39:57;5.60;;;4.07;;
20865;SDS011;10593;48.398;10.698;2023-05-29T03:42:22;4.67;;;4.27;;
20865;SDS011;10593;48.398;10.698;2023-05-29T03:44:48;5.20;;;4.50;;
20865;SDS011;10593;48.398;10.698;2023-05-29T03:47:13;5.00;;;4.50;;
20865;SDS011;10593;48.398;10.698;2023-05-29T03:49:39;5.10;;;4.50;;
20865;SDS011;10593;48.398;10.698;2023-05-29T03:52:05;4.70;;;4.30;;
20865;SDS011;10593;48.398;10.698;2023-05-29T03:54:31;4.67;;;4.17;;
20865;SDS011;10593;48.398;10.698;2023-05-29T03:56:57;4.43;;;4.03;;
20865;SDS011;10593;48.398;10.698;2023-05-29T03:59:23;4.60;;;4.20;;
20865;SDS011;10593;48.398;10.698;2023-05-29T04:01:49;4.83;;;4.23;;
20865;SDS011;10593;48.398;10.698;2023-05-29T04:04:14;5.77;;;4.10;;
20865;SDS011;10593;48.398;10.698;2023-05-29T04:06:40;4.77;;;4.37;;
20865;SDS011;10593;48.398;10.698;2023-05-29T04:09:06;4.83;;;4.37;;
20865;SDS011;10593;48.398;10.698;2023-05-29T04:11:33;4.77;;;4.37;;
20865;SDS011;10593;48.398;10.698;2023-05-29T04:13:59;4.63;;;4.23;;
20865;SDS011;10593;48.398;10.698;2023-05-29T04:16:26;4.83;;;4.43;;
20865;SDS011;10593;48.398;10.698;2023-05-29T04:18:53;4.27;;;3.77;;
20865;SDS011;10593;48.398;10.698;2023-05-29T04:21:19;4.87;;;4.17;;
20865;SDS011;10593;48.398;10.698;2023-05-29T04:23:46;5.80;;;4.07;;
20865;SDS011;10593;48.398;10.698;2023-05-29T04:26:11;5.03;;;4.30;;
20865;SDS011;10593;48.398;10.698;2023-05-29T04:28:38;4.57;;;4.10;;
20865;SDS011;10593;48.398;10.698;2023-05-29T04:31:04;6.20;;;4.67;;
20865;SDS011;10593;48.398;10.698;2023-05-29T04:33:32;4.90;;;4.40;;
20865;SDS011;10593;48.398;10.698;2023-05-29T04:36:01;4.97;;;4.50;;
20865;SDS011;10593;48.398;10.698;2023-05-29T04:38:28;4.87;;;4.47;;
20865;SDS011;10593;48.398;10.698;2023-05-29T04:40:56;5.13;;;4.63;;
20865;SDS011;10593;48.398;10.698;2023-05-29T04:43:25;5.57;;;4.90;;
20865;SDS011;10593;48.398;10.698;2023-05-29T04:45:53;5.73;;;5.13;;
20865;SDS011;10593;48.398;10.698;2023-05-29T04:48:19;5.17;;;4.67;;
20865;SDS011;10593;48.398;10.698;2023-05-29T04:50:44;4.70;;;4.27;;
20865;SDS011;10593;48.398;10.698;2023-05-29T04:53:10;4.63;;;4.10;;
20865;SDS011;10593;48.398;10.698;2023-05-29T04:55:36;5.27;;;4.30;;
20865;SDS011;10593;48.398;10.698;2023-05-29T04:58:02;5.53;;;5.03;;
20865;SDS011;10593;48.398;10.698;2023-05-29T05:00:27;5.30;;;4.80;;
20865;SDS011;10593;48.398;10.698;2023-05-29T05:02:53;6.37;;;4.90;;
20865;SDS011;10593;48.398;10.698;2023-05-29T05:05:20;5.30;;;4.90;;
20865;SDS011;10593;48.398;10.698;2023-05-29T05:07:46;4.63;;;4.07;;
20865;SDS011;10593;48.398;10.698;2023-05-29T05:10:11;4.97;;;4.50;;
20865;SDS011;10593;48.398;10.698;2023-05-29T05:12:37;4.60;;;4.20;;
20865;SDS011;10593;48.398;10.698;2023-05-29T05:15:03;4.57;;;4.17;;
20865;SDS011;10593;48.398;10.698;2023-05-29T05:17:30;3.73;;;3.43;;
20865;SDS011;10593;48.398;10.698;2023-05-29T05:19:56;5.73;;;4.50;;
20865;SDS011;10593;48.398;10.698;2023-05-29T05:22:22;4.53;;;4.10;;
20865;SDS011;10593;48.398;10.698;2023-05-29T05:24:47;4.63;;;4.20;;
20865;SDS011;10593;48.398;10.698;2023-05-29T05:27:13;4.83;;;3.80;;
20865;SDS011;10593;48.398;10.698;2023-05-29T05:29:39;4.80;;;4.30;;
20865;SDS011;10593;48.398;10.698;2023-05-29T05:32:04;4.30;;;3.87;;
20865;SDS011;10593;48.398;10.698;2023-05-29T05:34:31;4.60;;;4.20;;
20865;SDS011;10593;48.398;10.698;2023-05-29T05:36:57;5.07;;;4.40;;
20865;SDS011;10593;48.398;10.698;2023-05-29T05:39:22;4.33;;;3.83;;
20865;SDS011;10593;48.398;10.698;2023-05-29T05:41:48;4.80;;;4.30;;
20865;SDS011;10593;48.398;10.698;2023-05-29T05:44:14;4.43;;;4.03;;
20865;SDS011;10593;48.398;10.698;2023-05-29T05:46:39;4.67;;;4.07;;
20865;SDS011;10593;48.398;10.698;2023-05-29T05:49:05;4.30;;;3.90;;
20865;SDS011;10593;48.398;10.698;2023-05-29T05:51:30;4.40;;;4.00;;
20865;SDS011;10593;48.398;10.698;2023-05-29T05:53:56;4.47;;;4.03;;
20865;SDS011;10593;48.398;10.698;2023-05-29T05:56:22;3.80;;;3.50;;
20865;SDS011;10593;48.398;10.698;2023-05-29T05:58:47;4.40;;;3.90;;
20865;SDS011;10593;48.398;10.698;2023-05-29T06:01:15;4.63;;;3.73;;
20865;SDS011;10593;48.398;10.698;2023-05-29T06:03:40;4.33;;;3.93;;
20865;SDS011;10593;48.398;10.698;2023-05-29T06:06:06;4.30;;;3.90;;
20865;SDS011;10593;48.398;10.698;2023-05-29T06:08:33;4.70;;;4.17;;
20865;SDS011;10593;48.398;10.698;2023-05-29T06:10:59;4.33;;;3.30;;
20865;SDS011;10593;48.398;10.698;2023-05-29T06:13:25;4.77;;;4.10;;
20865;SDS011;10593;48.398;10.698;2023-05-29T06:15:51;4.33;;;3.20;;
20865;SDS011;10593;48.398;10.698;2023-05-29T06:18:16;4.80;;;3.40;;
20865;SDS011;10593;48.398;10.698;2023-05-29T06:20:42;4.50;;;4.00;;
20865;SDS011;10593;48.398;10.698;2023-05-29T06:23:08;3.80;;;3.30;;
20865;SDS011;10593;48.398;10.698;2023-05-29T06:25:33;3.60;;;3.30;;
20865;SDS011;10593;48.398;10.698;2023-05-29T06:27:59;3.40;;;3.10;;
20865;SDS011;10593;48.398;10.698;2023-05-29T06:30:26;4.37;;;3.23;;
20865;SDS011;10593;48.398;10.698;2023-05-29T06:32:53;3.10;;;2.80;;
20865;SDS011;10593;48.398;10.698;2023-05-29T06:35:18;5.90;;;3.63;;
20865;SDS011;10593;48.398;10.698;2023-05-29T06:37:45;5.87;;;3.40;;
20865;SDS011;10593;48.398;10.698;2023-05-29T06:40:11;5.90;;;3.17;;
20865;SDS011;10593;48.398;10.698;2023-05-29T06:42:38;3.80;;;3.40;;
20865;SDS011;10593;48.398;10.698;2023-05-29T06:45:04;3.50;;;3.20;;
20865;SDS011;10593;48.398;10.698;2023-05-29T06:47:30;3.40;;;3.10;;
20865;SDS011;10593;48.398;10.698;2023-05-29T06:49:56;4.87;;;3.00;;
20865;SDS011;10593;48.398;10.698;2023-05-29T06:52:22;3.70;;;3.23;;
20865;SDS011;10593;48.398;10.698;2023-05-29T06:54:47;4.33;;;3.60;;
20865;SDS011;10593;48.398;10.698;2023-05-29T06:57:13;3.40;;;3.10;;
20865;SDS011;10593;48.398;10.698;2023-05-29T06:59:39;3.77;;;3.30;;
20865;SDS011;10593;48.398;10.698;2023-05-29T07:02:04;3.83;;;3.37;;
20865;SDS011;10593;48.398;10.698;2023-05-29T07:04:30;3.70;;;3.03;;
20865;SDS011;10593;48.398;10.698;2023-05-29T07:06:56;6.10;;;3.37;;
20865;SDS011;10593;48.398;10.698;2023-05-29T07:09:22;4.10;;;3.50;;
20865;SDS011;10593;48.398;10.698;2023-05-29T07:11:47;3.80;;;3.00;;
20865;SDS011;10593;48.398;10.698;2023-05-29T07:14:13;2.87;;;2.67;;
20865;SDS011;10593;48.398;10.698;2023-05-29T07:16:39;3.70;;;2.67;;
20865;SDS011;10593;48.398;10.698;2023-05-29T07:19:05;3.27;;;2.97;;
20865;SDS011;10593;48.398;10.698;2023-05-29T07:21:30;3.87;;;3.30;;
20865;SDS011;10593;48.398;10.698;2023-05-29T07:23:57;4.00;;;3.03;;
20865;SDS011;10593;48.398;10.698;2023-05-29T07:26:24;4.83;;;3.17;;
20865;SDS011;10593;48.398;10.698;2023-05-29T07:28:50;3.30;;;2.90;;
20865;SDS011;10593;48.398;10.698;2023-05-29T07:31:16;3.20;;;2.90;;
20865;SDS011;10593;48.398;10.698;2023-05-29T07:33:41;4.80;;;2.60;;
20865;SDS011;10593;48.398;10.698;2023-05-29T07:36:07;3.27;;;2.97;;
20865;SDS011;10593;48.398;10.698;2023-05-29T07:38:33;4.37;;;3.27;;
20865;SDS011;10593;48.398;10.698;2023-05-29T07:40:59;4.73;;;3.30;;
20865;SDS011;10593;48.398;10.698;2023-05-29T07:43:24;2.97;;;2.67;;
20865;SDS011;10593;48.398;10.698;2023-05-29T07:45:50;3.20;;;2.80;;
20865;SDS011;10593;48.398;10.698;2023-05-29T07:48:15;2.97;;;2.73;;
20865;SDS011;10593;48.398;10.698;2023-05-29T07:50:41;3.07;;;2.77;;
20865;SDS011;10593;48.398;10.698;2023-05-29T07:53:07;3.93;;;3.27;;
20865;SDS011;10593;48.398;10.698;2023-05-29T07:55:34;3.43;;;3.10;;
20865;SDS011;10593;48.398;10.698;2023-05-29T07:58:00;2.73;;;2.53;;
20865;SDS011;10593;48.398;10.698;2023-05-29T08:00:26;3.93;;;3.03;;
20865;SDS011;10593;48.398;10.698;2023-05-29T08:02:53;4.63;;;3.23;;
20865;SDS011;10593;48.398;10.698;2023-05-29T08:05:19;3.87;;;2.77;;
20865;SDS011;10593;48.398;10.698;2023-05-29T08:07:45;3.07;;;2.87;;
20865;SDS011;10593;48.398;10.698;2023-05-29T08:10:11;3.00;;;2.70;;
20865;SDS011;10593;48.398;10.698;2023-05-29T08:12:37;3.53;;;3.07;;
20865;SDS011;10593;48.398;10.698;2023-05-29T08:15:03;3.50;;;3.20;;
20865;SDS011;10593;48.398;10.698;2023-05-29T08:17:29;3.20;;;2.90;;
20865;SDS011;10593;48.398;10.698;2023-05-29T08:19:55;5.73;;;3.53;;
20865;SDS011;10593;48.398;10.698;2023-05-29T08:22:21;3.27;;;2.90;;
20865;SDS011;10593;48.398;10.698;2023-05-29T08:24:54;3.17;;;2.87;;
20865;SDS011;10593;48.398;10.698;2023-05-29T08:27:20;2.90;;;2.63;;
20865;SDS011;10593;48.398;10.698;2023-05-29T08:29:46;3.50;;;2.60;;
20865;SDS011;10593;48.398;10.698;2023-05-29T08:32:11;2.57;;;2.37;;
20865;SDS011;10593;48.398;10.698;2023-05-29T08:34:37;3.17;;;2.87;;
20865;SDS011;10593;48.398;10.698;2023-05-29T08:37:03;3.47;;;2.87;;
20865;SDS011;10593;48.398;10.698;2023-05-29T08:39:30;4.10;;;3.10;;
20865;SDS011;10593;48.398;10.698;2023-05-29T08:41:58;2.73;;;2.47;;
20865;SDS011;10593;48.398;10.698;2023-05-29T08:44:32;3.23;;;2.90;;
20865;SDS011;10593;48.398;10.698;2023-05-29T08:47:01;3.27;;;2.77;;
20865;SDS011;10593;48.398;10.698;2023-05-29T08:49:34;3.70;;;3.10;;
20865;SDS011;10593;48.398;10.698;2023-05-29T08:52:10;5.40;;;3.00;;
20865;SDS011;10593;48.398;10.698;2023-05-29T08:54:41;4.60;;;2.90;;
20865;SDS011;10593;48.398;10.698;2023-05-29T08:57:07;5.07;;;2.77;;
20865;SDS011;10593;48.398;10.698;2023-05-29T08:59:35;3.27;;;2.80;;
20865;SDS011;10593;48.398;10.698;2023-05-29T09:02:05;3.03;;;2.80;;
20865;SDS011;10593;48.398;10.698;2023-05-29T09:04:31;3.40;;;2.60;;
20865;SDS011;10593;48.398;10.698;2023-05-29T09:06:58;4.33;;;2.90;;
20865;SDS011;10593;48.398;10.698;2023-05-29T09:09:24;2.77;;;2.57;;
20865;SDS011;10593;48.398;10.698;2023-05-29T09:11:53;2.67;;;2.40;;
20865;SDS011;10593;48.398;10.698;2023-05-29T09:17:17;3.20;;;2.90;;
20865;SDS011;10593;48.398;10.698;2023-05-29T09:19:42;4.20;;;2.53;;
20865;SDS011;10593;48.398;10.698;2023-05-29T09:22:10;3.47;;;2.73;;
20865;SDS011;10593;48.398;10.698;2023-05-29T09:24:41;2.70;;;2.50;;
20865;SDS011;10593;48.398;10.698;2023-05-29T09:27:14;3.07;;;2.77;;
20865;SDS011;10593;48.398;10.698;2023-05-29T09:29:40;2.53;;;2.33;;
20865;SDS011;10593;48.398;10.698;2023-05-29T09:32:08;2.67;;;2.47;;
20865;SDS011;10593;48.398;10.698;2023-05-29T09:34:36;3.03;;;2.73;;
20865;SDS011;10593;48.398;10.698;2023-05-29T09:37:06;3.83;;;2.73;;
20865;SDS011;10593;48.398;10.698;2023-05-29T09:39:34;2.80;;;2.60;;
20865;SDS011;10593;48.398;10.698;2023-05-29T09:42:10;3.07;;;2.77;;
20865;SDS011;10593;48.398;10.698;2023-05-29T09:44:36;3.53;;;2.60;;
20865;SDS011;10593;48.398;10.698;2023-05-29T09:47:02;3.20;;;2.90;;
20865;SDS011;10593;48.398;10.698;2023-05-29T09:49:29;3.50;;;2.83;;
20865;SDS011;10593;48.398;10.698;2023-05-29T09:51:57;3.00;;;2.70;;
20865;SDS011;10593;48.398;10.698;2023-05-29T09:54:24;2.80;;;2.60;;
20865;SDS011;10593;48.398;10.698;2023-05-29T09:56:54;4.60;;;3.27;;
20865;SDS011;10593;48.398;10.698;2023-05-29T09:59:23;3.43;;;2.43;;
20865;SDS011;10593;48.398;10.698;2023-05-29T10:02:03;3.20;;;2.77;;
20865;SDS011;10593;48.398;10.698;2023-05-29T10:04:32;3.13;;;2.33;;
20865;SDS011;10593;48.398;10.698;2023-05-29T10:07:00;3.17;;;2.77;;
20865;SDS011;10593;48.398;10.698;2023-05-29T10:09:55;2.70;;;2.50;;
20865;SDS011;10593;48.398;10.698;2023-05-29T10:12:27;3.03;;;2.70;;
20865;SDS011;10593;48.398;10.698;2023-05-29T10:14:57;2.60;;;2.40;;
20865;SDS011;10593;48.398;10.698;2023-05-29T10:17:25;4.53;;;2.97;;
20865;SDS011;10593;48.398;10.698;2023-05-29T10:19:57;3.10;;;2.80;;
20865;SDS011;10593;48.398;10.698;2023-05-29T10:22:26;2.90;;;2.60;;
20865;SDS011;10593;48.398;10.698;2023-05-29T10:24:55;3.23;;;2.60;;
20865;SDS011;10593;48.398;10.698;2023-05-29T10:27:22;2.60;;;2.40;;
20865;SDS011;10593;48.398;10.698;2023-05-29T10:30:09;2.93;;;2.57;;
20865;SDS011;10593;48.398;10.698;2023-05-29T10:33:05;2.37;;;2.27;;
20865;SDS011;10593;48.398;10.698;2023-05-29T10:36:19;2.93;;;2.63;;
20865;SDS011;10593;48.398;10.698;2023-05-29T10:38:49;2.87;;;2.57;;
20865;SDS011;10593;48.398;10.698;2023-05-29T10:43:53;2.77;;;2.57;;
20865;SDS011;10593;48.398;10.698;2023-05-29T10:46:19;5.20;;;2.57;;
20865;SDS011;10593;48.398;10.698;2023-05-29T10:48:47;3.17;;;2.83;;
20865;SDS011;10593;48.398;10.698;2023-05-29T10:51:25;2.27;;;2.17;;
20865;SDS011;10593;48.398;10.698;2023-05-29T10:53:52;3.90;;;2.30;;
20865;SDS011;10593;48.398;10.698;2023-05-29T10:56:23;3.47;;;2.70;;
20865;SDS011;10593;48.398;10.698;2023-05-29T10:58:54;2.53;;;2.20;;
20865;SDS011;10593;48.398;10.698;2023-05-29T11:01:23;2.60;;;2.40;;
20865;SDS011;10593;48.398;10.698;2023-05-29T11:03:54;2.87;;;2.17;;
20865;SDS011;10593;48.398;10.698;2023-05-29T11:06:49;3.07;;;2.77;;
20865;SDS011;10593;48.398;10.698;2023-05-29T11:09:35;3.17;;;2.57;;
20865;SDS011;10593;48.398;10.698;2023-05-29T11:15:06;3.97;;;2.57;;
20865;SDS011;10593;48.398;10.698;2023-05-29T11:20:04;3.70;;;2.60;;
20865;SDS011;10593;48.398;10.698;2023-05-29T11:22:45;3.00;;;2.70;;
20865;SDS011;10593;48.398;10.698;2023-05-29T11:25:37;3.10;;;2.63;;
20865;SDS011;10593;48.398;10.698;2023-05-29T11:28:04;2.50;;;2.30;;
20865;SDS011;10593;48.398;10.698;2023-05-29T11:30:43;2.40;;;2.20;;
20865;SDS011;10593;48.398;10.698;2023-05-29T11:33:24;2.40;;;2.20;;
20865;SDS011;10593;48.398;10.698;2023-05-29T11:35:56;2.77;;;2.57;;
20865;SDS011;10593;48.398;10.698;2023-05-29T11:38:24;4.30;;;2.37;;
20865;SDS011;10593;48.398;10.698;2023-05-29T11:40:52;2.50;;;2.30;;
20865;SDS011;10593;48.398;10.698;2023-05-29T11:43:19;2.43;;;2.23;;
20865;SDS011;10593;48.398;10.698;2023-05-29T11:45:46;2.70;;;2.50;;
20865;SDS011;10593;48.398;10.698;2023-05-29T11:48:12;3.03;;;2.47;;
20865;SDS011;10593;48.398;10.698;2023-05-29T11:50:38;2.70;;;2.50;;
20865;SDS011;10593;48.398;10.698;2023-05-29T11:53:05;2.63;;;2.40;;
20865;SDS011;10593;48.398;10.698;2023-05-29T11:55:32;2.17;;;1.93;;
20865;SDS011;10593;48.398;10.698;2023-05-29T11:57:59;2.60;;;2.40;;
20865;SDS011;10593;48.398;10.698;2023-05-29T12:00:30;2.47;;;2.10;;
20865;SDS011;10593;48.398;10.698;2023-05-29T12:03:00;3.50;;;2.23;;
20865;SDS011;10593;48.398;10.698;2023-05-29T12:05:32;2.40;;;2.20;;
20865;SDS011;10593;48.398;10.698;2023-05-29T12:08:10;4.63;;;2.50;;
20865;SDS011;10593;48.398;10.698;2023-05-29T12:10:36;3.00;;;2.33;;
20865;SDS011;10593;48.398;10.698;2023-05-29T12:13:02;2.57;;;2.37;;
20865;SDS011;10593;48.398;10.698;2023-05-29T12:15:28;2.17;;;1.93;;
20865;SDS011;10593;48.398;10.698;2023-05-29T12:17:54;4.70;;;2.40;;
20865;SDS011;10593;48.398;10.698;2023-05-29T12:20:24;2.83;;;2.30;;
20865;SDS011;10593;48.398;10.698;2023-05-29T12:22:53;2.40;;;2.20;;
20865;SDS011;10593;48.398;10.698;2023-05-29T12:25:26;3.20;;;2.50;;
20865;SDS011;10593;48.398;10.698;2023-05-29T12:27:52;2.20;;;2.00;;
20865;SDS011;10593;48.398;10.698;2023-05-29T12:30:23;2.33;;;2.00;;
20865;SDS011;10593;48.398;10.698;2023-05-29T12:32:49;1.93;;;1.73;;
20865;SDS011;10593;48.398;10.698;2023-05-29T12:35:17;2.40;;;2.20;;
20865;SDS011;10593;48.398;10.698;2023-05-29T12:37:59;2.77;;;1.97;;
20865;SDS011;10593;48.398;10.698;2023-05-29T12:42:59;3.40;;;2.20;;
20865;SDS011;10593;48.398;10.698;2023-05-29T12:45:28;2.93;;;2.10;;
20865;SDS011;10593;48.398;10.698;2023-05-29T12:50:34;2.40;;;2.20;;
20865;SDS011;10593;48.398;10.698;2023-05-29T12:53:07;2.33;;;2.13;;
20865;SDS011;10593;48.398;10.698;2023-05-29T12:55:35;2.00;;;1.90;;
20865;SDS011;10593;48.398;10.698;2023-05-29T12:58:03;2.23;;;2.03;;
20865;SDS011;10593;48.398;10.698;2023-05-29T13:00:30;2.40;;;1.80;;
20865;SDS011;10593;48.398;10.698;2023-05-29T13:02:58;4.50;;;2.10;;
20865;SDS011;10593;48.398;10.698;2023-05-29T13:05:24;2.07;;;1.93;;
20865;SDS011;10593;48.398;10.698;2023-05-29T13:07:49;3.40;;;2.00;;
20865;SDS011;10593;48.398;10.698;2023-05-29T13:10:17;2.00;;;1.80;;
20865;SDS011;10593;48.398;10.698;2023-05-29T13:12:44;2.33;;;2.13;;
20865;SDS011;10593;48.398;10.698;2023-05-29T13:15:12;2.83;;;2.17;;
20865;SDS011;10593;48.398;10.698;2023-05-29T13:17:39;2.23;;;2.03;;
20865;SDS011;10593;48.398;10.698;2023-05-29T13:20:07;2.60;;;2.00;;
20865;SDS011;10593;48.398;10.698;2023-05-29T13:22:37;3.37;;;2.40;;
20865;SDS011;10593;48.398;10.698;2023-05-29T13:25:04;4.33;;;2.07;;
20865;SDS011;10593;48.398;10.698;2023-05-29T13:27:36;2.40;;;2.20;;
20865;SDS011;10593;48.398;10.698;2023-05-29T13:30:04;2.30;;;2.10;;
20865;SDS011;10593;48.398;10.698;2023-05-29T13:32:31;2.37;;;1.90;;
20865;SDS011;10593;48.398;10.698;2023-05-29T13:34:57;2.60;;;2.40;;
20865;SDS011;10593;48.398;10.698;2023-05-29T13:37:23;2.90;;;2.43;;
20865;SDS011;10593;48.398;10.698;2023-05-29T13:39:49;2.47;;;2.10;;
20865;SDS011;10593;48.398;10.698;2023-05-29T13:42:15;2.37;;;2.10;;
20865;SDS011;10593;48.398;10.698;2023-05-29T13:44:42;2.03;;;1.80;;
20865;SDS011;10593;48.398;10.698;2023-05-29T13:47:08;2.40;;;2.20;;
20865;SDS011;10593;48.398;10.698;2023-05-29T13:49:34;4.03;;;2.50;;
20865;SDS011;10593;48.398;10.698;2023-05-29T13:52:00;2.70;;;2.27;;
20865;SDS011;10593;48.398;10.698;2023-05-29T13:54:27;4.93;;;2.33;;
20865;SDS011;10593;48.398;10.698;2023-05-29T13:56:56;2.20;;;2.00;;
20865;SDS011;10593;48.398;10.698;2023-05-29T13:59:23;2.47;;;2.03;;
20865;SDS011;10593;48.398;10.698;2023-05-29T14:01:49;3.00;;;2.10;;
20865;SDS011;10593;48.398;10.698;2023-05-29T14:04:15;2.00;;;1.80;;
20865;SDS011;10593;48.398;10.698;2023-05-29T14:06:41;2.20;;;1.83;;
20865;SDS011;10593;48.398;10.698;2023-05-29T14:09:06;2.80;;;1.93;;
20865;SDS011;10593;48.398;10.698;2023-05-29T14:11:35;3.10;;;1.90;;
20865;SDS011;10593;48.398;10.698;2023-05-29T14:14:02;1.87;;;1.77;;
20865;SDS011;10593;48.398;10.698;2023-05-29T14:16:28;2.63;;;2.20;;
20865;SDS011;10593;48.398;10.698;2023-05-29T14:18:55;2.53;;;2.23;;
20865;SDS011;10593;48.398;10.698;2023-05-29T14:21:20;2.10;;;1.90;;
20865;SDS011;10593;48.398;10.698;2023-05-29T14:23:46;2.17;;;2.00;;
20865;SDS011;10593;48.398;10.698;2023-05-29T14:26:12;2.00;;;1.80;;
20865;SDS011;10593;48.398;10.698;2023-05-29T14:28:38;1.90;;;1.80;;
20865;SDS011;10593;48.398;10.698;2023-05-29T14:31:04;2.63;;;2.43;;
20865;SDS011;10593;48.398;10.698;2023-05-29T14:33:31;2.17;;;2.03;;
20865;SDS011;10593;48.398;10.698;2023-05-29T14:35:57;1.87;;;1.77;;
20865;SDS011;10593;48.398;10.698;2023-05-29T14:38:23;2.30;;;2.10;;
20865;SDS011;10593;48.398;10.698;2023-05-29T14:40:50;2.87;;;2.10;;
20865;SDS011;10593;48.398;10.698;2023-05-29T14:43:16;1.80;;;1.70;;
20865;SDS011;10593;48.398;10.698;2023-05-29T14:45:42;2.30;;;1.90;;
20865;SDS011;10593;48.398;10.698;2023-05-29T14:48:08;2.43;;;1.80;;
20865;SDS011;10593;48.398;10.698;2023-05-29T14:50:35;2.13;;;2.00;;
20865;SDS011;10593;48.398;10.698;2023-05-29T14:53:02;2.00;;;1.83;;
20865;SDS011;10593;48.398;10.698;2023-05-29T14:55:28;1.90;;;1.80;;
20865;SDS011;10593;48.398;10.698;2023-05-29T14:57:57;1.80;;;1.60;;
20865;SDS011;10593;48.398;10.698;2023-05-29T15:00:22;1.90;;;1.80;;